High Point, NC

2:53 AM EST on February 09, 2016 (GMT -0500)
Carol Bay | | Change Station
CLOSE
Current Station
Personal Weather Station
Location: High Point, NC
Elevation: 853 ft
Nearby Weather Stations

Elev 853 ft 36.02 °N, 79.98 °W | Updated 7 seconds ago

Overcast
Overcast
35.0 °F
Feels Like 31 °F
N
5.0
Wind Variable Wind from SW
Gusts 6.0 mph

Today
High -- | Low -- °F
--% Chance of Precip.
Yesterday
High -- | Low -- °F
Precip. -- in
Pressure 29.61 in
Visibility 10.0 miles
Clouds Overcast 8000 ft
Windchill 31 °F
Dew Point 30 °F
Humidity 80%
Rainfall 0.00 in
Snow Depth Not available.
7:14 AM 5:54 PM
New Moon, 1% visible
METAR KGSO 090654Z 29003KT 10SM OVC080 01/M02 A2961 RMK AO2 SLP027 T00061022
Pressure 29.61 in
Visibility 10.0 miles
Clouds Overcast 8000 ft
Windchill 31 °F
Dew Point 30 °F
Humidity 80%
Rainfall 0.00 in
Snow Depth Not available.
7:14 AM 5:54 PM
New Moon, 1% visible
METAR KGSO 090654Z 29003KT 10SM OVC080 01/M02 A2961 RMK AO2 SLP027 T00061022

10-Day Weather Forecast

Almanac

Astronomy

Feb. 09, 2016 Rise Set
Actual Time
Civil Twilight
Nautical Twilight
Astronomical Twilight
Moon
Length of Visible Light
Length of Day
Tomorrow will be .
, % of the Moon is Illuminated

Today's Extremes

State Highs State Lows

Community

WunderPhotos

Upload Photos

1,891,571 photos uploaded!

WunderBlog® & News

Nearby

Air Quality

  Air Quality AQ Index Pollutant
Not available.

Snow Depth

Station Depth Elevation

Earthquake Activity

City Distance Mag. Time & Date
Minimum magnitude displayed is 2.5.

Coastal Water Temperatures

Place Temperature

Stations

Nearby Weather Stations

Station Location Temp. Windchill Dew Point Humidity Wind Precip. Elev Updated Type
                   

Watches & Warnings

There are currently no watches in effect.